Time;durP1;ratioP1;P1;durP2;ratioP2;P2;SDS_P1;SDS_P2;PMS_P1;PMS_P2;Temp;Humidity;BMP_temperature;BMP_pressure;BME280_temperature;BME280_humidity;BME280_pressure;Samples;Min_cycle;Max_cycle;Signal;HPM_P1;HPM_P2
2023/03/17 00:00:51;;;;;;;10.70;4.10;;;;;;;-145.18;100.00;60484.78;5065080;28;20432;-87
2023/03/17 00:03:28;;;;;;;10.33;4.10;;;;;;;-145.18;100.00;60484.78;5070237;28;20033;-87
2023/03/17 00:05:55;;;;;;;8.23;4.63;;;;;;;-145.18;100.00;60484.78;5071427;28;20056;-87
2023/03/17 00:08:26;;;;;;;7.93;4.20;;;;;;;-145.18;100.00;60484.78;5062642;28;20444;-87
2023/03/17 00:10:53;;;;;;;9.48;4.65;;;;;;;-145.18;100.00;60484.78;5067742;28;20073;-88
2023/03/17 00:13:19;;;;;;;11.50;4.90;;;;;;;-145.18;100.00;60484.78;5071703;28;20047;-88
2023/03/17 00:15:47;;;;;;;9.60;5.07;;;;;;;-145.18;100.00;60484.78;5071252;28;20464;-87
2023/03/17 00:18:16;;;;;;;8.20;4.10;;;;;;;-145.18;100.00;60484.78;5069224;28;20092;-88
2023/03/17 00:20:43;;;;;;;8.70;4.30;;;;;;;-145.18;100.00;60484.78;5070638;28;20082;-87
2023/03/17 00:23:14;;;;;;;8.83;4.30;;;;;;;-145.18;100.00;60484.78;5064500;28;20017;-87
2023/03/17 00:25:42;;;;;;;9.33;4.77;;;;;;;-145.18;100.00;60484.78;5065965;28;20107;-87
2023/03/17 00:28:19;;;;;;;8.87;4.17;;;;;;;-145.18;100.00;60484.78;5060554;28;20025;-88
2023/03/17 00:30:46;;;;;;;7.83;3.53;;;;;;;-145.18;100.00;60484.78;5067691;28;20107;-87
2023/03/17 00:33:14;;;;;;;9.43;4.00;;;;;;;-145.18;100.00;60484.78;5061990;28;20055;-87
2023/03/17 00:35:42;;;;;;;6.80;3.50;;;;;;;-145.18;100.00;60484.78;5067560;28;20025;-87
2023/03/17 00:38:19;;;;;;;8.30;4.10;;;;;;;-145.18;100.00;60484.78;5061590;28;20036;-88
2023/03/17 00:40:45;;;;;;;7.43;4.20;;;;;;;-145.18;100.00;60484.78;5071501;28;20020;-87
2023/03/17 00:43:11;;;;;;;10.43;3.73;;;;;;;-145.18;100.00;60484.78;5066055;28;20107;-88
2023/03/17 00:45:38;;;;;;;11.17;4.30;;;;;;;-145.18;100.00;60484.78;5073648;28;20483;-87
2023/03/17 00:48:13;;;;;;;7.57;4.30;;;;;;;-145.18;100.00;60484.78;5074277;28;20680;-86
2023/03/17 00:50:39;;;;;;;8.63;4.07;;;;;;;-145.18;100.00;60484.78;5065328;28;20055;-86
2023/03/17 00:53:09;;;;;;;6.90;3.47;;;;;;;-145.18;100.00;60484.78;5068067;28;20025;-86
2023/03/17 00:55:35;;;;;;;9.53;3.83;;;;;;;-145.18;100.00;60484.78;5065302;28;20154;-86
2023/03/17 00:58:01;;;;;;;12.83;4.50;;;;;;;-145.18;100.00;60484.78;5063801;28;20123;-85
2023/03/17 01:00:28;;;;;;;8.40;4.70;;;;;;;-145.18;100.00;60484.78;5066264;28;20071;-87
2023/03/17 01:02:55;;;;;;;8.17;4.20;;;;;;;-145.18;100.00;60484.78;5068252;28;20025;-86
2023/03/17 01:05:23;;;;;;;9.67;4.13;;;;;;;-145.18;100.00;60484.78;5066222;28;20025;-86
2023/03/17 01:07:52;;;;;;;10.83;4.27;;;;;;;-145.18;100.00;60484.78;5067907;28;20377;-86
2023/03/17 01:10:25;;;;;;;10.17;4.33;;;;;;;-145.18;100.00;60484.78;5070339;28;20029;-86
2023/03/17 01:12:52;;;;;;;7.30;3.77;;;;;;;-145.18;100.00;60484.78;5067016;28;20032;-87
2023/03/17 01:15:20;;;;;;;8.50;4.13;;;;;;;-145.18;100.00;60484.78;5063257;28;20028;-86
2023/03/17 01:17:46;;;;;;;9.13;4.43;;;;;;;-145.18;100.00;60484.78;5059284;28;20032;-86
2023/03/17 01:20:19;;;;;;;8.07;4.27;;;;;;;-145.18;100.00;60484.78;5059867;28;20025;-86
2023/03/17 01:22:44;;;;;;;8.33;3.90;;;;;;;-145.18;100.00;60484.78;5068547;28;20029;-86
2023/03/17 01:25:11;;;;;;;9.53;4.70;;;;;;;-145.18;100.00;60484.78;5059651;28;20434;-86
2023/03/17 01:27:37;;;;;;;7.53;4.37;;;;;;;-145.18;100.00;60484.78;5065135;28;20037;-87
2023/03/17 01:30:05;;;;;;;8.20;4.43;;;;;;;-145.18;100.00;60484.78;5062542;28;20048;-87
2023/03/17 01:32:31;;;;;;;10.23;4.57;;;;;;;-145.18;100.00;60484.78;5059760;28;20021;-87
2023/03/17 01:34:58;;;;;;;8.53;4.50;;;;;;;-145.18;100.00;60484.78;5062266;28;20497;-87
2023/03/17 01:37:24;;;;;;;9.63;4.20;;;;;;;-145.18;100.00;60484.78;5061802;28;20127;-88
2023/03/17 01:39:51;;;;;;;8.33;4.23;;;;;;;-145.18;100.00;60484.78;5062575;28;20025;-88
2023/03/17 01:42:17;;;;;;;10.33;4.03;;;;;;;-145.18;100.00;60484.78;5065343;28;20083;-88
2023/03/17 01:45:00;;;;;;;8.37;4.60;;;;;;;-145.18;100.00;60484.78;5068521;28;20033;-87
2023/03/17 01:47:31;;;;;;;7.33;3.97;;;;;;;-145.18;100.00;60484.78;5062360;28;20024;-86
2023/03/17 01:50:01;;;;;;;7.67;4.40;;;;;;;-145.18;100.00;60484.78;5055309;28;20029;-88
2023/03/17 01:52:27;;;;;;;8.33;4.37;;;;;;;-145.18;100.00;60484.78;5060480;28;20021;-88
2023/03/17 01:55:13;;;;;;;8.47;4.57;;;;;;;-145.18;100.00;60484.78;5064336;28;20008;-87
2023/03/17 01:58:05;;;;;;;7.20;4.10;;;;;;;-145.18;100.00;60484.78;5058367;28;20017;-88
2023/03/17 02:03:54;;;;;;;8.88;4.15;;;;;;;-145.18;100.00;60484.78;5080931;22;20097;-60
2023/03/17 02:06:20;;;;;;;8.17;4.70;;;;;;;-145.18;100.00;60484.78;5081603;28;20465;-59
2023/03/17 02:08:46;;;;;;;8.00;4.27;;;;;;;-145.18;100.00;60484.78;5084653;28;20595;-59
2023/03/17 02:11:12;;;;;;;9.30;4.33;;;;;;;-145.18;100.00;60484.78;5089923;28;20115;-60
2023/03/17 02:13:37;;;;;;;8.03;4.30;;;;;;;-145.18;100.00;60484.78;5092057;28;20016;-59
2023/03/17 02:16:04;;;;;;;8.03;4.00;;;;;;;-145.18;100.00;60484.78;5090344;28;20072;-59
2023/03/17 02:18:30;;;;;;;7.47;3.77;;;;;;;-145.18;100.00;60484.78;5091738;28;20862;-60
2023/03/17 02:21:35;;;;;;;8.23;4.17;;;;;;;-145.18;100.00;60484.78;5089732;28;20426;-59
2023/03/17 02:24:04;;;;;;;8.87;4.50;;;;;;;-145.18;100.00;60484.78;5087353;28;20120;-58
2023/03/17 02:26:34;;;;;;;7.30;3.90;;;;;;;-145.18;100.00;60484.78;5088397;28;20034;-59
2023/03/17 02:28:59;;;;;;;10.67;4.27;;;;;;;-145.18;100.00;60484.78;5091996;28;20056;-59
2023/03/17 02:31:26;;;;;;;7.00;3.03;;;;;;;-145.18;100.00;60484.78;5091189;28;20450;-60
2023/03/17 02:33:53;;;;;;;7.63;3.40;;;;;;;-145.18;100.00;60484.78;5088435;28;20430;-58
2023/03/17 02:36:19;;;;;;;5.97;2.77;;;;;;;-145.18;100.00;60484.78;5087092;28;20033;-60
2023/03/17 02:38:45;;;;;;;8.33;4.00;;;;;;;-145.18;100.00;60484.78;5088398;28;20020;-59
2023/03/17 02:41:10;;;;;;;6.57;2.87;;;;;;;-145.18;100.00;60484.78;5094087;28;20035;-59
2023/03/17 02:43:36;;;;;;;6.67;3.70;;;;;;;-145.18;100.00;60484.78;5088670;28;20028;-59
2023/03/17 02:46:02;;;;;;;7.67;3.77;;;;;;;-145.18;100.00;60484.78;5091553;28;20042;-59
2023/03/17 02:48:27;;;;;;;6.97;3.37;;;;;;;-145.18;100.00;60484.78;5087103;28;20094;-59
2023/03/17 02:50:53;;;;;;;7.10;3.67;;;;;;;-145.18;100.00;60484.78;5086541;28;20033;-59
2023/03/17 02:53:18;;;;;;;6.27;3.33;;;;;;;-145.18;100.00;60484.78;5091873;28;20074;-59
2023/03/17 02:55:44;;;;;;;6.07;2.80;;;;;;;-145.18;100.00;60484.78;5091119;28;20502;-58
2023/03/17 02:58:10;;;;;;;7.63;3.77;;;;;;;-145.18;100.00;60484.78;5094701;28;20035;-59
2023/03/17 03:00:35;;;;;;;8.57;3.83;;;;;;;-145.18;100.00;60484.78;5092870;28;20024;-59
2023/03/17 03:03:01;;;;;;;8.07;3.97;;;;;;;-145.18;100.00;60484.78;5096070;28;20174;-59
2023/03/17 03:05:27;;;;;;;7.60;3.63;;;;;;;-145.18;100.00;60484.78;5110401;28;20028;-59
2023/03/17 03:07:53;;;;;;;7.50;3.20;;;;;;;-145.18;100.00;60484.78;5112346;27;20028;-60
2023/03/17 03:10:18;;;;;;;8.53;3.53;;;;;;;-145.18;100.00;60484.78;5114146;28;20039;-59
2023/03/17 03:12:45;;;;;;;8.23;4.33;;;;;;;-145.18;100.00;60484.78;5112468;28;20386;-59
2023/03/17 03:15:10;;;;;;;8.03;3.93;;;;;;;-145.18;100.00;60484.78;5115753;28;20066;-59
2023/03/17 03:17:36;;;;;;;9.97;4.37;;;;;;;-145.18;100.00;60484.78;5111101;28;20047;-59
2023/03/17 03:20:02;;;;;;;9.07;4.73;;;;;;;-145.18;100.00;60484.78;5111065;28;20089;-59
2023/03/17 03:22:28;;;;;;;9.00;4.17;;;;;;;-145.18;100.00;60484.78;5115473;28;20068;-59
2023/03/17 03:24:53;;;;;;;8.70;4.10;;;;;;;-145.18;100.00;60484.78;5109225;28;20429;-60
2023/03/17 03:27:19;;;;;;;12.10;4.37;;;;;;;-145.18;100.00;60484.78;5114793;27;20039;-59
2023/03/17 03:29:45;;;;;;;10.17;4.77;;;;;;;-145.18;100.00;60484.78;5115026;28;20110;-59
2023/03/17 03:32:10;;;;;;;7.43;4.13;;;;;;;-145.18;100.00;60484.78;5112545;28;20495;-60
2023/03/17 03:34:36;;;;;;;9.60;4.10;;;;;;;-145.18;100.00;60484.78;5110764;28;20039;-59
2023/03/17 03:37:01;;;;;;;8.13;3.70;;;;;;;-145.18;100.00;60484.78;5106273;28;20028;-59
2023/03/17 03:39:26;;;;;;;9.50;4.77;;;;;;;-145.18;100.00;60484.78;5108948;28;20479;-60
2023/03/17 03:41:56;;;;;;;8.03;3.87;;;;;;;-145.18;100.00;60484.78;5111132;28;20039;-60
2023/03/17 03:44:21;;;;;;;7.60;3.97;;;;;;;-145.18;100.00;60484.78;5106605;28;20511;-60
2023/03/17 03:46:47;;;;;;;6.77;3.63;;;;;;;-145.18;100.00;60484.78;5107603;28;20031;-59
2023/03/17 03:49:12;;;;;;;9.43;4.00;;;;;;;-145.18;100.00;60484.78;5109917;28;20028;-59
2023/03/17 03:51:38;;;;;;;10.17;4.07;;;;;;;-145.18;100.00;60484.78;5111312;28;20917;-60
2023/03/17 03:54:03;;;;;;;10.60;4.07;;;;;;;-145.18;100.00;60484.78;5115364;28;20077;-65
2023/03/17 03:56:29;;;;;;;7.83;4.00;;;;;;;-145.18;100.00;60484.78;5112632;28;20024;-66
2023/03/17 03:58:55;;;;;;;8.27;3.80;;;;;;;-145.18;100.00;60484.78;5110920;28;20016;-66
2023/03/17 04:01:20;;;;;;;7.50;3.60;;;;;;;-145.18;100.00;60484.78;5114720;28;20516;-66
2023/03/17 04:03:46;;;;;;;9.03;3.93;;;;;;;-145.18;100.00;60484.78;5110158;28;20024;-66
2023/03/17 04:06:11;;;;;;;7.47;4.10;;;;;;;-145.18;100.00;60484.78;5107834;28;20020;-67
2023/03/17 04:08:37;;;;;;;10.97;4.23;;;;;;;-145.18;100.00;60484.78;5111407;28;20027;-67
2023/03/17 04:11:03;;;;;;;7.77;4.10;;;;;;;-145.18;100.00;60484.78;5110500;28;20020;-66
2023/03/17 04:13:28;;;;;;;8.70;3.87;;;;;;;-145.18;100.00;60484.78;5113452;28;20047;-66
2023/03/17 04:15:53;;;;;;;9.27;4.20;;;;;;;-145.18;100.00;60484.78;5110087;28;20039;-66
2023/03/17 04:18:19;;;;;;;11.17;4.90;;;;;;;-145.18;100.00;60484.78;5114232;28;20027;-66
2023/03/17 04:20:44;;;;;;;4.97;2.50;;;;;;;-145.18;100.00;60484.78;5114388;28;20020;-66
2023/03/17 04:23:10;;;;;;;7.57;4.17;;;;;;;-145.18;100.00;60484.78;5111874;28;20118;-66
2023/03/17 04:25:36;;;;;;;7.33;3.80;;;;;;;-145.18;100.00;60484.78;5113001;28;20011;-66
2023/03/17 04:28:02;;;;;;;8.60;3.53;;;;;;;-145.18;100.00;60484.78;5114158;28;20066;-66
2023/03/17 04:30:28;;;;;;;6.97;3.93;;;;;;;-145.18;100.00;60484.78;5112169;28;20102;-66
2023/03/17 04:32:53;;;;;;;7.37;3.23;;;;;;;-145.18;100.00;60484.78;5112258;28;20028;-66
2023/03/17 04:35:21;;;;;;;8.63;4.33;;;;;;;-145.18;100.00;60484.78;5106880;28;20024;-66
2023/03/17 04:37:47;;;;;;;11.40;4.20;;;;;;;-145.18;100.00;60484.78;5114282;28;20114;-66
2023/03/17 04:40:14;;;;;;;9.50;4.03;;;;;;;-145.18;100.00;60484.78;5114619;28;21355;-66
2023/03/17 04:42:40;;;;;;;8.70;4.60;;;;;;;-145.18;100.00;60484.78;5110652;28;20112;-66
2023/03/17 04:45:08;;;;;;;8.50;4.23;;;;;;;-145.18;100.00;60484.78;5113707;28;20059;-65
2023/03/17 04:47:34;;;;;;;7.20;3.53;;;;;;;-145.18;100.00;60484.78;5105311;28;20042;-66
2023/03/17 04:50:00;;;;;;;9.47;4.13;;;;;;;-145.18;100.00;60484.78;5113500;28;20498;-65
2023/03/17 04:52:25;;;;;;;8.20;4.47;;;;;;;-145.18;100.00;60484.78;5112256;28;20023;-66
2023/03/17 04:54:51;;;;;;;7.10;3.53;;;;;;;-145.18;100.00;60484.78;5114071;28;20487;-66
2023/03/17 04:57:17;;;;;;;9.10;4.53;;;;;;;-145.18;100.00;60484.78;5110156;28;20102;-65
2023/03/17 04:59:42;;;;;;;10.03;3.40;;;;;;;-145.18;100.00;60484.78;5113025;28;20020;-65
2023/03/17 05:02:08;;;;;;;9.67;4.50;;;;;;;-145.18;100.00;60484.78;5111611;28;20024;-65
2023/03/17 05:04:33;;;;;;;7.63;3.83;;;;;;;-145.18;100.00;60484.78;5111195;27;20027;-66
2023/03/17 05:06:59;;;;;;;7.70;3.43;;;;;;;-145.18;100.00;60484.78;5110184;28;20038;-65
2023/03/17 05:09:27;;;;;;;6.97;3.57;;;;;;;-145.18;100.00;60484.78;5109440;28;20569;-66
2023/03/17 05:11:53;;;;;;;9.50;4.00;;;;;;;-145.18;100.00;60484.78;5109250;28;20016;-65
2023/03/17 05:14:18;;;;;;;7.10;3.40;;;;;;;-145.18;100.00;60484.78;5107981;28;20028;-65
2023/03/17 05:16:46;;;;;;;8.13;3.93;;;;;;;-145.18;100.00;60484.78;5107717;28;20055;-65
2023/03/17 05:19:12;;;;;;;8.40;2.67;;;;;;;-145.18;100.00;60484.78;5112478;28;20391;-65
2023/03/17 05:21:51;;;;;;;8.10;3.57;;;;;;;-145.18;100.00;60484.78;5111438;28;20039;-65
2023/03/17 05:24:16;;;;;;;6.93;3.87;;;;;;;-145.18;100.00;60484.78;5111106;28;20066;-66
2023/03/17 05:26:42;;;;;;;7.27;3.80;;;;;;;-145.18;100.00;60484.78;5110995;28;20059;-65
2023/03/17 05:29:07;;;;;;;5.90;3.10;;;;;;;-145.18;100.00;60484.78;5111047;28;20387;-65
2023/03/17 05:31:33;;;;;;;7.23;3.50;;;;;;;-145.18;100.00;60484.78;5107638;28;20027;-65
2023/03/17 05:33:59;;;;;;;6.97;3.73;;;;;;;-145.18;100.00;60484.78;5111783;28;20023;-66
2023/03/17 05:36:24;;;;;;;7.27;3.67;;;;;;;-145.18;100.00;60484.78;5107443;28;20023;-65
2023/03/17 05:38:51;;;;;;;7.27;3.70;;;;;;;-145.18;100.00;60484.78;5110366;28;20144;-65
2023/03/17 05:41:16;;;;;;;8.97;4.10;;;;;;;-145.18;100.00;60484.78;5111748;28;20055;-66
2023/03/17 05:43:42;;;;;;;8.43;4.33;;;;;;;-145.18;100.00;60484.78;5108008;28;20567;-65
2023/03/17 05:46:08;;;;;;;9.20;4.80;;;;;;;-145.18;100.00;60484.78;5110224;28;20028;-65
2023/03/17 05:48:33;;;;;;;7.77;4.10;;;;;;;-145.18;100.00;60484.78;5109563;28;20216;-65
2023/03/17 05:50:59;;;;;;;8.63;4.20;;;;;;;-145.18;100.00;60484.78;5106919;28;20020;-66
2023/03/17 05:53:24;;;;;;;8.27;4.20;;;;;;;-145.18;100.00;60484.78;5111305;28;20023;-66
2023/03/17 05:55:51;;;;;;;8.30;4.20;;;;;;;-145.18;100.00;60484.78;5106835;28;20027;-66
2023/03/17 05:58:17;;;;;;;7.30;4.13;;;;;;;-145.18;100.00;60484.78;5107333;28;20077;-66
2023/03/17 06:00:43;;;;;;;8.60;4.70;;;;;;;-145.18;100.00;60484.78;5111587;28;20405;-66
2023/03/17 06:03:08;;;;;;;8.43;4.17;;;;;;;-145.18;100.00;60484.78;5112504;28;20051;-66
2023/03/17 06:05:34;;;;;;;9.90;4.50;;;;;;;-145.18;100.00;60484.78;5112056;28;20442;-65
2023/03/17 06:08:00;;;;;;;6.70;4.20;;;;;;;-145.18;100.00;60484.78;5107952;28;20114;-65
2023/03/17 06:10:26;;;;;;;6.87;3.40;;;;;;;-145.18;100.00;60484.78;5112351;28;20034;-66
2023/03/17 06:12:51;;;;;;;6.67;3.43;;;;;;;-145.18;100.00;60484.78;5112333;28;20059;-65
2023/03/17 06:15:17;;;;;;;7.00;3.73;;;;;;;-145.18;100.00;60484.78;5112235;28;20085;-65
2023/03/17 06:17:43;;;;;;;8.03;3.73;;;;;;;-145.18;100.00;60484.78;5106800;28;20023;-66
2023/03/17 06:20:10;;;;;;;6.80;3.60;;;;;;;-145.18;100.00;60484.78;5108868;28;20038;-66
2023/03/17 06:22:36;;;;;;;8.47;3.60;;;;;;;-145.18;100.00;60484.78;5110569;28;20055;-66
2023/03/17 06:25:03;;;;;;;6.20;3.47;;;;;;;-145.18;100.00;60484.78;5106805;28;20027;-67
2023/03/17 06:27:28;;;;;;;6.93;3.27;;;;;;;-145.18;100.00;60484.78;5105379;28;20035;-66
2023/03/17 06:29:54;;;;;;;8.13;3.70;;;;;;;-145.18;100.00;60484.78;5108519;28;20030;-66
2023/03/17 06:32:19;;;;;;;7.30;3.93;;;;;;;-145.18;100.00;60484.78;5111456;28;20031;-65
2023/03/17 06:34:45;;;;;;;6.40;3.00;;;;;;;-145.18;100.00;60484.78;5112107;28;20070;-66
2023/03/17 06:37:10;;;;;;;5.37;3.30;;;;;;;-145.18;100.00;60484.78;5109773;28;20386;-65
2023/03/17 06:39:36;;;;;;;5.30;3.10;;;;;;;-145.18;100.00;60484.78;5112597;28;20023;-66
2023/03/17 06:42:03;;;;;;;6.83;3.17;;;;;;;-145.18;100.00;60484.78;5111859;28;20024;-66
2023/03/17 06:44:28;;;;;;;6.90;3.13;;;;;;;-145.18;100.00;60484.78;5112356;28;20058;-66
2023/03/17 06:46:54;;;;;;;7.00;3.30;;;;;;;-145.18;100.00;60484.78;5112408;28;20059;-65
2023/03/17 06:49:20;;;;;;;6.53;3.33;;;;;;;-145.18;100.00;60484.78;5112021;28;20024;-65
2023/03/17 06:51:45;;;;;;;6.93;3.50;;;;;;;-145.18;100.00;60484.78;5112034;28;20035;-65
2023/03/17 06:54:11;;;;;;;6.97;3.07;;;;;;;-145.18;100.00;60484.78;5112040;28;20023;-66
2023/03/17 06:56:36;;;;;;;6.90;3.13;;;;;;;-145.18;100.00;60484.78;5111959;28;20115;-65
2023/03/17 06:59:03;;;;;;;5.67;3.17;;;;;;;-145.18;100.00;60484.78;5111418;28;20028;-66
2023/03/17 07:01:29;;;;;;;6.80;3.40;;;;;;;-145.18;100.00;60484.78;5112065;28;20060;-66
2023/03/17 07:03:54;;;;;;;5.63;3.43;;;;;;;-145.18;100.00;60484.78;5112118;28;20035;-66
2023/03/17 07:06:22;;;;;;;8.03;3.57;;;;;;;-145.18;100.00;60484.78;5111761;28;20027;-66
2023/03/17 07:08:47;;;;;;;6.27;2.90;;;;;;;-145.18;100.00;60484.78;5111964;28;20027;-66
2023/03/17 07:11:13;;;;;;;5.60;3.10;;;;;;;-145.18;100.00;60484.78;5112095;28;20019;-66
2023/03/17 07:13:39;;;;;;;7.47;3.40;;;;;;;-145.18;100.00;60484.78;5111992;28;20120;-66
2023/03/17 07:16:05;;;;;;;4.83;2.80;;;;;;;-145.18;100.00;60484.78;5110484;28;20034;-66
2023/03/17 07:18:32;;;;;;;7.90;3.10;;;;;;;-145.18;100.00;60484.78;5110150;28;20479;-66
2023/03/17 07:20:59;;;;;;;12.03;3.27;;;;;;;-145.18;100.00;60484.78;5108068;28;20099;-66
2023/03/17 07:23:25;;;;;;;6.00;3.30;;;;;;;-145.18;100.00;60484.78;5112320;28;20054;-65
2023/03/17 07:25:51;;;;;;;7.50;3.30;;;;;;;-145.18;100.00;60484.78;5111977;28;20024;-65
2023/03/17 07:28:18;;;;;;;5.38;2.90;;;;;;;-145.18;100.00;60484.78;5112245;28;20027;-65
2023/03/17 07:30:45;;;;;;;7.63;3.50;;;;;;;-145.18;100.00;60484.78;5110993;28;20045;-65
2023/03/17 07:33:15;;;;;;;5.43;3.10;;;;;;;-145.18;100.00;60484.78;5111881;28;20032;-65
2023/03/17 07:35:41;;;;;;;5.57;3.10;;;;;;;-145.18;100.00;60484.78;5111691;28;20471;-65
2023/03/17 07:38:07;;;;;;;5.32;2.90;;;;;;;-145.18;100.00;60484.78;5111790;28;20039;-65
2023/03/17 07:40:33;;;;;;;6.70;3.20;;;;;;;-145.18;100.00;60484.78;5111212;28;20116;-65
2023/03/17 07:42:58;;;;;;;5.13;2.88;;;;;;;-145.18;100.00;60484.78;5111706;28;20024;-66
2023/03/17 07:45:24;;;;;;;5.95;3.10;;;;;;;-145.18;100.00;60484.78;5114091;28;20053;-65
2023/03/17 07:47:49;;;;;;;6.45;3.10;;;;;;;-145.18;100.00;60484.78;5113270;28;20027;-65
2023/03/17 07:50:15;;;;;;;5.47;2.80;;;;;;;-145.18;100.00;60484.78;5115401;28;20428;-66
2023/03/17 07:52:41;;;;;;;6.38;3.08;;;;;;;-145.18;100.00;60484.78;5115947;27;20429;-65
2023/03/17 07:55:09;;;;;;;4.80;2.90;;;;;;;-145.18;100.00;60484.78;5115493;28;20065;-65
2023/03/17 07:57:35;;;;;;;5.67;3.10;;;;;;;-145.18;100.00;60484.78;5115249;27;20395;-65
2023/03/17 08:00:00;;;;;;;9.43;3.60;;;;;;;-145.18;100.00;60484.78;5115214;28;20044;-65
2023/03/17 08:02:26;;;;;;;6.13;3.13;;;;;;;-145.18;100.00;60484.78;5115281;28;20043;-65
2023/03/17 08:04:52;;;;;;;5.83;3.33;;;;;;;-145.18;100.00;60484.78;5113871;28;20545;-65
2023/03/17 08:07:18;;;;;;;6.50;3.03;;;;;;;-145.18;100.00;60484.78;5114897;28;20044;-66
2023/03/17 08:09:43;;;;;;;6.35;3.17;;;;;;;-145.18;100.00;60484.78;5114760;28;20031;-65
2023/03/17 08:12:10;;;;;;;5.50;3.00;;;;;;;-145.18;100.00;60484.78;5114805;28;20073;-63
2023/03/17 08:14:35;;;;;;;5.57;3.08;;;;;;;-145.18;100.00;60484.78;5114599;28;20028;-64
2023/03/17 08:17:01;;;;;;;6.22;2.90;;;;;;;-145.18;100.00;60484.78;5114371;28;20028;-63
2023/03/17 08:19:27;;;;;;;6.00;2.65;;;;;;;-145.18;100.00;60484.78;5114942;28;20135;-65
2023/03/17 08:21:52;;;;;;;7.18;2.97;;;;;;;-145.18;100.00;60484.78;5109500;28;20036;-65
2023/03/17 08:24:19;;;;;;;7.47;2.95;;;;;;;-145.18;100.00;60484.78;5114680;28;20368;-64
2023/03/17 08:26:48;;;;;;;6.78;3.22;;;;;;;-145.18;100.00;60484.78;5114383;28;20084;-64
2023/03/17 08:29:14;;;;;;;5.38;2.80;;;;;;;-145.18;100.00;60484.78;5114670;28;20023;-64
2023/03/17 08:31:40;;;;;;;5.70;2.78;;;;;;;-145.18;100.00;60484.78;5114495;28;20422;-64
2023/03/17 08:34:06;;;;;;;5.43;3.00;;;;;;;-145.18;100.00;60484.78;5114380;28;20031;-64
2023/03/17 08:36:32;;;;;;;6.03;3.13;;;;;;;-145.18;100.00;60484.78;5112635;28;20020;-64
2023/03/17 08:38:58;;;;;;;5.22;2.90;;;;;;;-145.18;100.00;60484.78;5113174;28;20051;-64
2023/03/17 08:41:25;;;;;;;4.80;2.80;;;;;;;-145.18;100.00;60484.78;5111481;28;20031;-64
2023/03/17 08:43:51;;;;;;;5.63;2.80;;;;;;;-145.18;100.00;60484.78;5114111;28;20031;-64
2023/03/17 08:46:31;;;;;;;6.37;3.17;;;;;;;-145.18;100.00;60484.78;5113508;28;20438;-64
2023/03/17 08:48:58;;;;;;;5.40;2.53;;;;;;;-145.18;100.00;60484.78;5111163;28;20050;-64
2023/03/17 08:51:25;;;;;;;6.22;2.90;;;;;;;-145.18;100.00;60484.78;5110231;28;20437;-65
2023/03/17 08:53:52;;;;;;;6.90;2.83;;;;;;;-145.18;100.00;60484.78;5113969;28;20024;-64
2023/03/17 08:56:18;;;;;;;5.20;2.60;;;;;;;-145.18;100.00;60484.78;5108528;28;20380;-64
2023/03/17 08:58:44;;;;;;;4.65;2.47;;;;;;;-145.18;100.00;60484.78;5114312;28;20026;-64
2023/03/17 09:01:11;;;;;;;4.80;2.67;;;;;;;-145.18;100.00;60484.78;5113682;28;20055;-65
2023/03/17 09:03:38;;;;;;;6.15;2.83;;;;;;;-145.18;100.00;60484.78;5113794;28;20058;-65
2023/03/17 09:06:05;;;;;;;5.28;2.85;;;;;;;-145.18;100.00;60484.78;5113896;28;20487;-65
2023/03/17 09:08:33;;;;;;;5.97;3.45;;;;;;;-145.18;100.00;60484.78;5113899;28;20027;-65
2023/03/17 09:11:00;;;;;;;5.03;2.95;;;;;;;-145.18;100.00;60484.78;5113680;28;20036;-65
2023/03/17 09:13:26;;;;;;;4.55;2.60;;;;;;;-145.18;100.00;60484.78;5109307;28;20028;-65
2023/03/17 09:15:52;;;;;;;6.22;2.90;;;;;;;-145.18;100.00;60484.78;5113734;28;20055;-65
2023/03/17 09:18:18;;;;;;;4.95;2.65;;;;;;;-145.18;100.00;60484.78;5113708;28;20084;-65
2023/03/17 09:20:43;;;;;;;5.28;2.88;;;;;;;-145.18;100.00;60484.78;5110716;28;20162;-65
2023/03/17 09:23:10;;;;;;;5.85;2.75;;;;;;;-145.18;100.00;60484.78;5113304;28;20107;-65
2023/03/17 09:25:38;;;;;;;5.95;2.47;;;;;;;-145.18;100.00;60484.78;5113658;28;20429;-65
2023/03/17 09:28:06;;;;;;;6.03;2.72;;;;;;;-145.18;100.00;60484.78;5109796;28;20027;-64
2023/03/17 09:30:32;;;;;;;5.13;2.83;;;;;;;-145.18;100.00;60484.78;5112511;28;20023;-64
2023/03/17 09:32:59;;;;;;;6.75;2.65;;;;;;;-145.18;100.00;60484.78;5113306;28;20016;-65
2023/03/17 09:35:26;;;;;;;5.00;2.70;;;;;;;-145.18;100.00;60484.78;5113373;28;20032;-64
2023/03/17 09:37:53;;;;;;;4.90;2.72;;;;;;;-145.18;100.00;60484.78;5113136;28;20027;-64
2023/03/17 09:40:21;;;;;;;7.28;3.00;;;;;;;-145.18;100.00;60484.78;5113191;28;20077;-65
2023/03/17 09:42:56;;;;;;;6.63;2.55;;;;;;;-145.18;100.00;60484.78;5113055;28;20012;-65
2023/03/17 09:45:35;;;;;;;4.57;2.65;;;;;;;-145.18;100.00;60484.78;5113402;28;20537;-65
2023/03/17 09:48:48;;;;;;;5.78;3.03;;;;;;;-145.18;100.00;60484.78;5112375;28;20483;-65
2023/03/17 09:51:17;;;;;;;7.90;2.83;;;;;;;-145.18;100.00;60484.78;5047600;28;20040;-64
2023/03/17 09:54:03;;;;;;;4.82;2.58;;;;;;;-145.18;100.00;60484.78;5112647;28;20023;-65
2023/03/17 09:56:32;;;;;;;6.07;2.67;;;;;;;-145.18;100.00;60484.78;5108677;28;20020;-65
2023/03/17 09:59:32;;;;;;;6.50;2.70;;;;;;;-145.18;100.00;60484.78;5112703;28;20107;-65
2023/03/17 10:01:58;;;;;;;5.93;2.80;;;;;;;-145.18;100.00;60484.78;5112776;28;20054;-65
2023/03/17 10:04:23;;;;;;;6.88;2.80;;;;;;;-145.18;100.00;60484.78;5112045;28;20054;-65
2023/03/17 10:06:50;;;;;;;6.00;3.15;;;;;;;-145.18;100.00;60484.78;5112326;28;20019;-65
2023/03/17 10:09:26;;;;;;;5.72;2.97;;;;;;;-145.18;100.00;60484.78;5112604;28;20055;-65
2023/03/17 10:12:01;;;;;;;5.22;2.85;;;;;;;-145.18;100.00;60484.78;5112575;28;20022;-65
2023/03/17 10:14:59;;;;;;;5.95;3.40;;;;;;;-145.18;100.00;60484.78;5112544;28;20038;-66
2023/03/17 10:17:30;;;;;;;7.40;3.00;;;;;;;-145.18;100.00;60484.78;5039374;28;20035;-65
2023/03/17 10:20:32;;;;;;;8.52;3.30;;;;;;;-145.18;100.00;60484.78;5112462;28;20487;-65
2023/03/17 10:23:06;;;;;;;6.55;3.08;;;;;;;-145.18;100.00;60484.78;5105317;28;20027;-65
2023/03/17 10:25:35;;;;;;;5.33;2.90;;;;;;;-145.18;100.00;60484.78;5109140;28;20027;-65
2023/03/17 10:28:23;;;;;;;7.32;3.10;;;;;;;-145.18;100.00;60484.78;5112395;28;20034;-65
2023/03/17 10:30:48;;;;;;;6.05;3.35;;;;;;;-145.18;100.00;60484.78;5098384;28;20073;-65
2023/03/17 10:33:14;;;;;;;7.57;3.15;;;;;;;-145.18;100.00;60484.78;5111929;28;20028;-65
2023/03/17 10:35:43;;;;;;;6.43;2.92;;;;;;;-145.18;100.00;60484.78;5111542;28;20088;-65
2023/03/17 10:38:22;;;;;;;8.30;3.17;;;;;;;-145.18;100.00;60484.78;5105980;28;20040;-65
2023/03/17 10:41:07;;;;;;;6.63;3.20;;;;;;;-145.18;100.00;60484.78;5106482;28;20152;-65
2023/03/17 10:43:50;;;;;;;6.25;3.45;;;;;;;-145.18;100.00;60484.78;5112063;28;20035;-64
2023/03/17 10:46:23;;;;;;;6.50;3.20;;;;;;;-145.18;100.00;60484.78;5111633;28;20038;-64
2023/03/17 10:48:55;;;;;;;6.40;3.28;;;;;;;-145.18;100.00;60484.78;5112318;28;20024;-65
2023/03/17 10:51:30;;;;;;;6.40;3.40;;;;;;;-145.18;100.00;60484.78;5110495;28;20032;-64
2023/03/17 10:53:59;;;;;;;6.90;3.35;;;;;;;-145.18;100.00;60484.78;5101817;28;20143;-65
2023/03/17 10:56:29;;;;;;;7.30;3.50;;;;;;;-145.18;100.00;60484.78;5106217;28;20034;-65
2023/03/17 10:58:56;;;;;;;8.20;3.60;;;;;;;-145.18;100.00;60484.78;5111682;28;20034;-65
2023/03/17 11:02:08;;;;;;;6.65;3.30;;;;;;;-145.18;100.00;60484.78;5111585;28;20081;-65
2023/03/17 11:04:41;;;;;;;7.57;3.35;;;;;;;-145.18;100.00;60484.78;5028948;28;20048;-65
2023/03/17 11:07:20;;;;;;;6.78;3.88;;;;;;;-145.18;100.00;60484.78;5029049;28;20049;-65
2023/03/17 11:09:51;;;;;;;6.90;3.67;;;;;;;-145.18;100.00;60484.78;5029155;28;20488;-65
2023/03/17 11:12:27;;;;;;;6.03;3.42;;;;;;;-145.18;100.00;60484.78;5028998;28;20367;-65
2023/03/17 11:15:00;;;;;;;6.63;3.58;;;;;;;-145.18;100.00;60484.78;5028908;28;20233;-65
2023/03/17 11:17:55;;;;;;;6.35;3.00;;;;;;;-145.18;100.00;60484.78;5029048;28;20405;-65